Time;durP1;ratioP1;P1;durP2;ratioP2;P2;SDS_P1;SDS_P2;PMS_P1;PMS_P2;Temp;Humidity;BMP_temperature;BMP_pressure;BME280_temperature;BME280_humidity;BME280_pressure;Samples;Min_cycle;Max_cycle;Signal;HPM_P1;HPM_P2
2021/07/22 00:01:31;;;;;;;16.60;9.88;;;;;;;;;;4972320;28;20027;-71
2021/07/22 00:03:57;;;;;;;21.63;11.57;;;;;;;;;;4974272;28;20030;-70
2021/07/22 00:06:23;;;;;;;17.42;10.50;;;;;;;;;;4990302;28;20022;-71
2021/07/22 00:08:49;;;;;;;19.25;11.68;;;;;;;;;;4971727;28;20027;-70
2021/07/22 00:11:14;;;;;;;19.38;11.70;;;;;;;;;;4976185;28;20057;-70
2021/07/22 00:13:40;;;;;;;21.13;11.30;;;;;;;;;;4990155;28;20122;-70
2021/07/22 00:16:08;;;;;;;18.98;11.50;;;;;;;;;;4971636;28;20019;-70
2021/07/22 00:18:34;;;;;;;19.73;11.80;;;;;;;;;;4972001;28;20065;-71
2021/07/22 00:21:00;;;;;;;21.15;11.80;;;;;;;;;;4970112;28;20058;-71
2021/07/22 00:23:26;;;;;;;20.92;12.38;;;;;;;;;;4969136;28;20550;-70
2021/07/22 00:25:52;;;;;;;18.70;12.02;;;;;;;;;;4976058;28;20031;-70
2021/07/22 00:28:18;;;;;;;22.23;13.65;;;;;;;;;;4964330;28;20368;-70
2021/07/22 00:30:44;;;;;;;23.55;13.52;;;;;;;;;;4971864;28;20487;-70
2021/07/22 00:33:11;;;;;;;23.75;12.20;;;;;;;;;;4982559;28;20058;-71
2021/07/22 00:35:37;;;;;;;24.55;12.73;;;;;;;;;;4971533;28;20046;-70
2021/07/22 00:38:03;;;;;;;21.33;12.80;;;;;;;;;;4971535;28;20093;-71
2021/07/22 00:40:29;;;;;;;22.67;13.50;;;;;;;;;;4971193;28;20054;-70
2021/07/22 00:42:58;;;;;;;22.75;13.05;;;;;;;;;;4963957;28;20034;-71
2021/07/22 00:45:24;;;;;;;24.95;13.52;;;;;;;;;;4971188;28;20024;-71
2021/07/22 00:47:51;;;;;;;25.58;12.82;;;;;;;;;;4985983;28;20054;-71
2021/07/22 00:50:18;;;;;;;22.23;13.70;;;;;;;;;;4976314;28;20101;-71
2021/07/22 00:52:44;;;;;;;23.30;14.10;;;;;;;;;;4971282;28;20023;-70
2021/07/22 00:55:10;;;;;;;24.73;14.38;;;;;;;;;;4971773;28;20042;-71
2021/07/22 00:57:36;;;;;;;26.90;14.18;;;;;;;;;;4974214;28;20070;-71
2021/07/22 01:00:02;;;;;;;24.98;14.75;;;;;;;;;;4972966;28;20019;-70
2021/07/22 01:02:28;;;;;;;28.80;14.32;;;;;;;;;;4971284;28;20047;-70
2021/07/22 01:04:54;;;;;;;26.92;15.98;;;;;;;;;;4972338;28;20023;-70
2021/07/22 01:07:20;;;;;;;26.17;15.68;;;;;;;;;;4983322;28;20381;-71
2021/07/22 01:09:46;;;;;;;26.15;16.75;;;;;;;;;;4971110;28;20027;-70
2021/07/22 01:12:12;;;;;;;30.30;16.13;;;;;;;;;;4971145;28;20023;-71
2021/07/22 01:14:38;;;;;;;27.25;15.23;;;;;;;;;;4989544;28;20054;-70
2021/07/22 01:17:09;;;;;;;27.48;16.25;;;;;;;;;;4976090;28;20025;-70
2021/07/22 01:19:35;;;;;;;28.55;15.45;;;;;;;;;;4977448;28;20030;-70
2021/07/22 01:22:01;;;;;;;29.33;15.95;;;;;;;;;;4978948;28;20123;-70
2021/07/22 01:24:27;;;;;;;28.38;16.25;;;;;;;;;;4978605;28;20023;-70
2021/07/22 01:26:53;;;;;;;25.55;14.10;;;;;;;;;;4985426;28;20031;-70
2021/07/22 01:29:19;;;;;;;24.05;15.57;;;;;;;;;;4971448;28;20391;-71
2021/07/22 01:31:45;;;;;;;29.52;16.00;;;;;;;;;;4970705;28;20306;-71
2021/07/22 01:34:11;;;;;;;26.02;16.27;;;;;;;;;;4964372;28;20023;-71
2021/07/22 01:36:37;;;;;;;29.77;16.70;;;;;;;;;;4972621;28;20030;-71
2021/07/22 01:39:03;;;;;;;33.05;15.25;;;;;;;;;;4970750;28;20058;-71
2021/07/22 01:41:29;;;;;;;28.90;15.60;;;;;;;;;;4978794;28;20027;-71
2021/07/22 01:43:55;;;;;;;27.27;16.13;;;;;;;;;;4974870;28;20497;-71
2021/07/22 01:46:21;;;;;;;30.48;15.23;;;;;;;;;;4986377;28;20071;-71
2021/07/22 01:48:47;;;;;;;30.45;16.27;;;;;;;;;;4992130;28;20026;-71
2021/07/22 01:51:13;;;;;;;27.35;14.35;;;;;;;;;;4992210;28;20050;-70
2021/07/22 01:53:39;;;;;;;27.33;16.38;;;;;;;;;;4979499;28;20471;-71
2021/07/22 01:56:05;;;;;;;29.15;15.30;;;;;;;;;;4987399;28;20142;-71
2021/07/22 01:58:31;;;;;;;27.25;15.48;;;;;;;;;;4982241;28;20019;-71
2021/07/22 02:00:57;;;;;;;28.02;15.90;;;;;;;;;;4979266;28;20520;-71
2021/07/22 02:03:22;;;;;;;27.95;16.27;;;;;;;;;;4980290;28;20015;-71
2021/07/22 02:05:48;;;;;;;31.05;16.42;;;;;;;;;;4979515;28;20022;-70
2021/07/22 02:08:14;;;;;;;26.23;14.93;;;;;;;;;;4973850;28;20022;-70
2021/07/22 02:10:40;;;;;;;26.83;15.05;;;;;;;;;;4979860;28;20751;-71
2021/07/22 02:13:06;;;;;;;31.70;17.65;;;;;;;;;;4973065;28;20026;-71
2021/07/22 02:15:32;;;;;;;26.88;15.95;;;;;;;;;;4980687;28;20020;-71
2021/07/22 02:17:59;;;;;;;27.98;15.73;;;;;;;;;;4977782;28;20041;-71
2021/07/22 02:20:25;;;;;;;27.98;16.00;;;;;;;;;;4973975;28;20023;-71
2021/07/22 02:22:51;;;;;;;27.10;16.85;;;;;;;;;;4975236;28;20050;-70
2021/07/22 02:25:17;;;;;;;25.25;14.80;;;;;;;;;;4973325;28;20516;-71
2021/07/22 02:27:43;;;;;;;28.45;16.67;;;;;;;;;;4980563;28;20085;-71
2021/07/22 02:30:10;;;;;;;26.42;16.08;;;;;;;;;;4973561;28;20524;-71
2021/07/22 02:32:35;;;;;;;26.88;15.55;;;;;;;;;;4971290;28;20031;-70
2021/07/22 02:35:01;;;;;;;23.20;14.82;;;;;;;;;;4972998;28;20110;-71
2021/07/22 02:37:27;;;;;;;24.02;14.32;;;;;;;;;;4973132;28;20038;-71
2021/07/22 02:39:53;;;;;;;23.85;14.43;;;;;;;;;;4966339;28;20023;-70
2021/07/22 02:42:19;;;;;;;21.90;12.88;;;;;;;;;;4973354;28;20391;-71
2021/07/22 02:44:45;;;;;;;21.23;13.45;;;;;;;;;;4973444;28;20033;-71
2021/07/22 02:47:11;;;;;;;20.20;12.35;;;;;;;;;;4973954;28;20259;-71
2021/07/22 02:49:38;;;;;;;19.42;11.52;;;;;;;;;;4988913;28;20022;-71
2021/07/22 02:52:05;;;;;;;20.45;12.30;;;;;;;;;;4982256;28;20046;-70
2021/07/22 02:54:31;;;;;;;15.85;10.82;;;;;;;;;;4992451;28;20050;-70
2021/07/22 02:56:57;;;;;;;20.10;11.77;;;;;;;;;;4976464;28;20372;-71
2021/07/22 02:59:23;;;;;;;20.23;10.45;;;;;;;;;;4992259;28;20062;-71
2021/07/22 03:01:49;;;;;;;15.85;11.57;;;;;;;;;;4981727;28;20429;-71
2021/07/22 03:04:15;;;;;;;16.15;10.75;;;;;;;;;;4974144;28;20097;-71
2021/07/22 03:06:41;;;;;;;18.23;11.73;;;;;;;;;;4976067;28;20097;-71
2021/07/22 03:09:07;;;;;;;15.20;10.65;;;;;;;;;;4973104;28;20097;-71
2021/07/22 03:11:33;;;;;;;19.40;12.50;;;;;;;;;;4989618;28;20027;-71
2021/07/22 03:14:01;;;;;;;20.75;10.65;;;;;;;;;;4972928;28;20035;-71
2021/07/22 03:16:27;;;;;;;17.45;10.80;;;;;;;;;;4987144;28;20053;-71
2021/07/22 03:18:53;;;;;;;18.25;10.40;;;;;;;;;;4973288;28;20105;-71
2021/07/22 03:21:19;;;;;;;17.90;11.23;;;;;;;;;;4972507;28;20118;-70
2021/07/22 03:23:45;;;;;;;17.77;10.10;;;;;;;;;;4972716;28;20018;-70
2021/07/22 03:26:16;;;;;;;16.05;10.07;;;;;;;;;;4995666;28;20077;-70
2021/07/22 03:28:43;;;;;;;15.55;10.43;;;;;;;;;;4972920;28;20085;-70
2021/07/22 03:31:09;;;;;;;15.90;9.85;;;;;;;;;;4972673;28;20399;-70
2021/07/22 03:33:35;;;;;;;14.75;10.35;;;;;;;;;;4967143;28;20322;-71
2021/07/22 03:36:02;;;;;;;19.00;10.70;;;;;;;;;;4977605;28;20028;-71
2021/07/22 03:38:28;;;;;;;15.25;9.80;;;;;;;;;;4972371;28;20034;-70
2021/07/22 03:40:54;;;;;;;14.00;9.18;;;;;;;;;;4973316;28;20030;-71
2021/07/22 03:43:20;;;;;;;19.88;10.80;;;;;;;;;;4972907;28;20027;-70
2021/07/22 03:45:46;;;;;;;16.58;9.38;;;;;;;;;;4971250;28;20031;-70
2021/07/22 03:48:15;;;;;;;16.60;10.70;;;;;;;;;;4972593;28;20026;-70
2021/07/22 03:50:41;;;;;;;16.90;9.70;;;;;;;;;;4966821;28;20046;-71
2021/07/22 03:53:08;;;;;;;14.93;9.82;;;;;;;;;;4963729;28;20452;-71
2021/07/22 03:55:34;;;;;;;13.88;9.00;;;;;;;;;;4972432;28;20019;-70
2021/07/22 03:58:00;;;;;;;15.68;9.93;;;;;;;;;;4971520;28;20022;-70
2021/07/22 04:00:26;;;;;;;13.95;8.68;;;;;;;;;;4972401;28;20550;-71
2021/07/22 04:03:01;;;;;;;14.82;9.20;;;;;;;;;;4971583;28;20031;-72
2021/07/22 04:05:27;;;;;;;18.33;8.68;;;;;;;;;;4972187;28;20361;-71
2021/07/22 04:07:57;;;;;;;13.93;8.65;;;;;;;;;;4987198;28;20038;-71
2021/07/22 04:10:23;;;;;;;12.43;8.95;;;;;;;;;;4982242;28;20027;-70
2021/07/22 04:12:56;;;;;;;16.20;9.05;;;;;;;;;;4990522;28;20077;-71
2021/07/22 04:15:23;;;;;;;18.23;9.50;;;;;;;;;;4984410;28;20377;-71
2021/07/22 04:17:52;;;;;;;14.52;9.07;;;;;;;;;;4983640;28;20029;-71
2021/07/22 04:20:18;;;;;;;13.03;8.80;;;;;;;;;;4975037;28;20026;-71
2021/07/22 04:22:44;;;;;;;14.95;7.75;;;;;;;;;;4973360;28;20356;-71
2021/07/22 04:25:10;;;;;;;17.52;9.70;;;;;;;;;;4971299;28;20476;-71
2021/07/22 04:27:36;;;;;;;15.70;9.80;;;;;;;;;;4971720;28;20078;-71
2021/07/22 04:30:03;;;;;;;14.77;9.40;;;;;;;;;;4981347;28;20027;-71
2021/07/22 04:32:29;;;;;;;15.45;9.98;;;;;;;;;;4977634;28;20027;-71
2021/07/22 04:34:54;;;;;;;15.82;9.32;;;;;;;;;;4977827;28;20419;-71
2021/07/22 04:37:20;;;;;;;17.55;9.57;;;;;;;;;;4972434;28;20023;-71
2021/07/22 04:39:46;;;;;;;14.75;8.95;;;;;;;;;;4980753;28;20023;-71
2021/07/22 04:42:12;;;;;;;15.82;9.52;;;;;;;;;;4971485;28;20495;-71
2021/07/22 04:44:38;;;;;;;16.73;10.65;;;;;;;;;;4970961;28;20023;-71
2021/07/22 04:47:04;;;;;;;14.75;9.70;;;;;;;;;;4970998;28;20019;-71
2021/07/22 04:49:30;;;;;;;15.30;9.80;;;;;;;;;;4970785;28;20026;-71
2021/07/22 04:51:59;;;;;;;17.02;10.07;;;;;;;;;;4971482;28;20035;-71
2021/07/22 04:54:25;;;;;;;15.93;9.02;;;;;;;;;;4970898;28;20380;-71
2021/07/22 04:56:51;;;;;;;15.15;9.45;;;;;;;;;;4976892;28;20034;-71
2021/07/22 04:59:17;;;;;;;12.15;8.63;;;;;;;;;;4987336;28;20038;-71
2021/07/22 05:01:43;;;;;;;14.30;9.85;;;;;;;;;;4976152;28;20026;-71
2021/07/22 05:04:15;;;;;;;14.77;10.02;;;;;;;;;;4974758;28;20367;-71
2021/07/22 05:06:41;;;;;;;15.38;9.80;;;;;;;;;;4971046;28;20479;-71
2021/07/22 05:09:07;;;;;;;14.48;9.70;;;;;;;;;;4979307;28;20102;-71
2021/07/22 05:11:33;;;;;;;15.23;9.60;;;;;;;;;;4979034;28;20051;-71
2021/07/22 05:13:59;;;;;;;14.85;9.77;;;;;;;;;;4971374;28;20073;-71
2021/07/22 05:16:25;;;;;;;16.05;10.80;;;;;;;;;;4973620;28;20120;-71
2021/07/22 05:18:51;;;;;;;15.73;9.85;;;;;;;;;;4981541;28;20514;-70
2021/07/22 05:21:17;;;;;;;18.80;10.20;;;;;;;;;;4975399;28;20033;-71
2021/07/22 05:23:43;;;;;;;13.48;9.57;;;;;;;;;;4980292;28;20479;-71
2021/07/22 05:26:12;;;;;;;15.35;10.43;;;;;;;;;;5014444;23;20027;-68
2021/07/22 05:28:38;;;;;;;18.73;9.45;;;;;;;;;;4969351;28;20081;-68
2021/07/22 05:31:11;;;;;;;15.57;9.23;;;;;;;;;;4968186;28;20445;-68
2021/07/22 05:33:38;;;;;;;16.58;9.70;;;;;;;;;;4974236;28;20027;-68
2021/07/22 05:36:05;;;;;;;15.02;8.10;;;;;;;;;;4972320;28;20391;-68
2021/07/22 05:38:31;;;;;;;15.15;9.30;;;;;;;;;;4974245;28;20030;-68
2021/07/22 05:41:04;;;;;;;13.52;8.50;;;;;;;;;;4983274;28;20030;-68
2021/07/22 05:43:30;;;;;;;15.82;8.43;;;;;;;;;;4979639;28;20054;-68
2021/07/22 05:45:56;;;;;;;12.07;7.65;;;;;;;;;;4973766;28;20026;-68
2021/07/22 05:48:22;;;;;;;13.65;8.27;;;;;;;;;;4974057;28;20023;-68
2021/07/22 05:50:49;;;;;;;17.05;8.52;;;;;;;;;;4973638;28;20078;-68
2021/07/22 05:53:15;;;;;;;12.77;8.05;;;;;;;;;;4982115;28;20027;-68
2021/07/22 05:55:41;;;;;;;14.55;8.38;;;;;;;;;;4976351;28;20023;-68
2021/07/22 05:58:07;;;;;;;14.27;8.48;;;;;;;;;;4973201;28;20073;-66
2021/07/22 06:00:33;;;;;;;13.35;7.97;;;;;;;;;;4995639;28;20026;-66
2021/07/22 06:02:59;;;;;;;12.98;8.30;;;;;;;;;;4973502;28;20026;-66
2021/07/22 06:05:25;;;;;;;14.20;7.78;;;;;;;;;;4973829;28;20121;-66
2021/07/22 06:07:51;;;;;;;13.15;7.85;;;;;;;;;;4981633;28;20022;-66
2021/07/22 06:10:16;;;;;;;12.27;7.72;;;;;;;;;;4977256;28;20033;-66
2021/07/22 06:12:43;;;;;;;13.25;7.57;;;;;;;;;;4991954;28;20034;-66
2021/07/22 06:15:10;;;;;;;10.85;7.35;;;;;;;;;;4988315;28;20384;-66
2021/07/22 06:17:36;;;;;;;15.57;8.30;;;;;;;;;;4995740;28;20034;-66
2021/07/22 06:20:04;;;;;;;11.60;7.28;;;;;;;;;;4976260;28;20038;-66
2021/07/22 06:22:29;;;;;;;15.55;8.18;;;;;;;;;;4990028;28;20081;-66
2021/07/22 06:24:55;;;;;;;10.18;6.93;;;;;;;;;;4976139;28;20420;-66
2021/07/22 06:27:21;;;;;;;12.05;7.30;;;;;;;;;;4978870;28;20038;-66
2021/07/22 06:29:47;;;;;;;10.43;7.20;;;;;;;;;;4981381;28;20363;-66
2021/07/22 06:32:13;;;;;;;14.13;8.10;;;;;;;;;;4985543;28;20085;-66
2021/07/22 06:34:39;;;;;;;12.82;8.05;;;;;;;;;;4973334;28;20787;-66
2021/07/22 06:37:05;;;;;;;12.38;7.43;;;;;;;;;;4984183;28;20061;-66
2021/07/22 06:39:35;;;;;;;12.13;7.32;;;;;;;;;;4973607;28;20030;-66
2021/07/22 06:42:01;;;;;;;10.80;7.00;;;;;;;;;;4972989;28;20027;-66
2021/07/22 06:44:30;;;;;;;17.55;7.30;;;;;;;;;;4980952;28;20073;-66
2021/07/22 06:46:56;;;;;;;;;;;;;;;;;;4972503;28;20101;-66
2021/07/22 06:49:22;;;;;;;11.13;7.75;;;;;;;;;;4970408;28;20008;-66
2021/07/22 06:51:48;;;;;;;13.73;7.50;;;;;;;;;;4978373;28;20035;-66
2021/07/22 06:54:14;;;;;;;10.65;7.38;;;;;;;;;;4971986;28;20454;-66
2021/07/22 06:56:41;;;;;;;13.35;6.22;;;;;;;;;;4973025;28;20019;-66
2021/07/22 06:59:07;;;;;;;12.18;7.05;;;;;;;;;;4984081;28;20033;-66
2021/07/22 07:01:33;;;;;;;14.32;7.70;;;;;;;;;;4968213;28;20035;-66
2021/07/22 07:03:58;;;;;;;11.30;7.25;;;;;;;;;;4969507;28;20031;-66
2021/07/22 07:06:24;;;;;;;13.77;7.30;;;;;;;;;;4971645;28;20026;-66
2021/07/22 07:08:50;;;;;;;9.90;6.82;;;;;;;;;;4964005;28;20090;-66
2021/07/22 07:11:16;;;;;;;12.00;7.05;;;;;;;;;;4983587;28;20022;-66
2021/07/22 07:13:42;;;;;;;10.27;6.75;;;;;;;;;;4971874;28;20420;-68
2021/07/22 07:16:08;;;;;;;11.25;7.07;;;;;;;;;;4974897;28;20042;-66
2021/07/22 07:18:34;;;;;;;11.18;7.25;;;;;;;;;;4978274;28;20069;-66
2021/07/22 07:21:03;;;;;;;13.93;7.32;;;;;;;;;;4969497;28;20083;-66
2021/07/22 07:23:30;;;;;;;11.43;7.20;;;;;;;;;;4971832;28;20023;-66
2021/07/22 07:25:56;;;;;;;15.30;6.85;;;;;;;;;;4964923;28;20373;-66
2021/07/22 07:28:21;;;;;;;18.60;7.22;;;;;;;;;;4971969;28;20049;-65
2021/07/22 07:30:47;;;;;;;14.15;6.78;;;;;;;;;;4968339;28;20387;-66
2021/07/22 07:33:13;;;;;;;13.68;6.70;;;;;;;;;;4968693;28;20468;-66
2021/07/22 07:35:39;;;;;;;19.58;7.70;;;;;;;;;;4971827;28;20109;-66
2021/07/22 07:38:05;;;;;;;8.38;5.50;;;;;;;;;;4990151;28;20025;-66
2021/07/22 07:40:32;;;;;;;10.10;5.22;;;;;;;;;;4989569;28;20023;-64
2021/07/22 07:42:58;;;;;;;8.88;5.63;;;;;;;;;;4989812;28;20088;-66
2021/07/22 07:45:25;;;;;;;10.50;5.38;;;;;;;;;;4991974;28;20349;-65
2021/07/22 07:47:51;;;;;;;8.65;5.78;;;;;;;;;;4988095;28;20035;-66
2021/07/22 07:50:17;;;;;;;9.20;5.43;;;;;;;;;;4995643;28;20050;-67
2021/07/22 07:52:43;;;;;;;9.05;5.90;;;;;;;;;;5000287;28;20030;-67
2021/07/22 07:55:10;;;;;;;9.02;5.10;;;;;;;;;;4983203;28;20036;-67
2021/07/22 07:57:36;;;;;;;7.90;5.65;;;;;;;;;;4987872;28;20080;-66
2021/07/22 08:00:03;;;;;;;7.15;4.95;;;;;;;;;;4988309;28;20034;-65
2021/07/22 08:02:29;;;;;;;9.27;5.15;;;;;;;;;;4988695;28;20027;-65
2021/07/22 08:04:57;;;;;;;9.60;5.65;;;;;;;;;;4997645;28;20033;-65
2021/07/22 08:07:23;;;;;;;8.40;4.85;;;;;;;;;;4991010;28;20502;-65
2021/07/22 08:09:49;;;;;;;8.35;4.95;;;;;;;;;;4988362;28;20037;-65
2021/07/22 08:12:18;;;;;;;8.43;4.78;;;;;;;;;;4991001;28;20019;-65
2021/07/22 08:14:44;;;;;;;8.60;4.93;;;;;;;;;;4991404;28;20102;-65
2021/07/22 08:17:14;;;;;;;6.78;4.53;;;;;;;;;;4991234;28;20019;-64
2021/07/22 08:19:40;;;;;;;7.85;5.25;;;;;;;;;;4986782;28;20058;-65
2021/07/22 08:22:06;;;;;;;7.15;4.60;;;;;;;;;;4990902;28;20030;-64
2021/07/22 08:24:32;;;;;;;9.15;4.90;;;;;;;;;;4997536;28;20026;-65
2021/07/22 08:26:58;;;;;;;9.25;5.55;;;;;;;;;;4992958;28;20034;-64
2021/07/22 08:29:24;;;;;;;6.85;4.53;;;;;;;;;;4989600;28;20030;-64
2021/07/22 08:31:50;;;;;;;5.93;4.40;;;;;;;;;;4987053;28;20019;-64
2021/07/22 08:34:17;;;;;;;6.78;4.53;;;;;;;;;;4986558;28;20023;-65
2021/07/22 08:36:43;;;;;;;9.23;4.55;;;;;;;;;;4987351;28;20030;-65
2021/07/22 08:39:09;;;;;;;6.95;3.92;;;;;;;;;;4999089;28;20064;-64
2021/07/22 08:41:36;;;;;;;6.68;4.82;;;;;;;;;;4997078;28;20475;-64
2021/07/22 08:44:03;;;;;;;8.35;4.78;;;;;;;;;;4987942;28;20058;-64
2021/07/22 08:46:29;;;;;;;9.52;5.20;;;;;;;;;;4989860;28;20025;-64
2021/07/22 08:48:57;;;;;;;8.07;5.28;;;;;;;;;;4995248;28;20368;-65
2021/07/22 08:51:28;;;;;;;6.35;4.10;;;;;;;;;;4989965;28;20058;-65
2021/07/22 08:53:54;;;;;;;9.32;4.75;;;;;;;;;;4992017;28;20049;-65
2021/07/22 08:56:24;;;;;;;12.40;4.75;;;;;;;;;;4987748;28;20027;-64
2021/07/22 08:58:50;;;;;;;19.35;5.63;;;;;;;;;;4988075;28;20044;-65
2021/07/22 09:01:17;;;;;;;6.30;4.72;;;;;;;;;;4988271;28;20153;-65
2021/07/22 09:03:43;;;;;;;8.93;4.22;;;;;;;;;;4989511;28;20059;-65
2021/07/22 09:06:15;;;;;;;6.75;4.55;;;;;;;;;;4990041;28;20463;-68
2021/07/22 09:08:42;;;;;;;6.07;4.13;;;;;;;;;;4990503;28;20514;-66
2021/07/22 09:11:09;;;;;;;7.07;4.57;;;;;;;;;;5001320;28;20026;-65
2021/07/22 09:13:35;;;;;;;9.27;4.13;;;;;;;;;;4985772;28;20034;-66
2021/07/22 09:16:01;;;;;;;5.22;3.63;;;;;;;;;;4992197;28;20046;-67
2021/07/22 09:18:31;;;;;;;6.82;3.90;;;;;;;;;;4990449;28;20023;-66
2021/07/22 09:20:57;;;;;;;6.80;4.72;;;;;;;;;;4979500;28;20033;-67
2021/07/22 09:23:26;;;;;;;7.90;4.47;;;;;;;;;;4976450;28;20416;-66
2021/07/22 09:25:52;;;;;;;;;;;;;;;;;;4992112;28;20391;-66
2021/07/22 09:28:19;;;;;;;8.00;4.40;;;;;;;;;;4994039;28;19921;-67
2021/07/22 09:30:55;;;;;;;11.68;4.88;;;;;;;;;;4989832;28;20018;-67
2021/07/22 09:33:34;;;;;;;7.82;4.72;;;;;;;;;;4989909;28;20161;-66
2021/07/22 09:36:00;;;;;;;5.55;4.30;;;;;;;;;;4989682;28;20030;-67
2021/07/22 09:38:28;;;;;;;7.22;4.53;;;;;;;;;;4989245;28;20560;-67
2021/07/22 09:40:54;;;;;;;7.80;4.60;;;;;;;;;;4984981;28;20391;-66
2021/07/22 09:43:37;;;;;;;6.47;4.30;;;;;;;;;;4987436;28;20430;-67
2021/07/22 09:46:03;;;;;;;9.55;4.60;;;;;;;;;;4992356;28;20872;-66
2021/07/22 09:48:29;;;;;;;8.55;4.88;;;;;;;;;;4987741;28;20022;-66
2021/07/22 09:50:55;;;;;;;8.43;4.97;;;;;;;;;;4992366;28;20161;-67
2021/07/22 09:53:22;;;;;;;11.73;4.75;;;;;;;;;;4988799;28;20068;-66
2021/07/22 09:55:53;;;;;;;5.80;4.18;;;;;;;;;;4990266;28;20068;-66
2021/07/22 09:58:19;;;;;;;8.65;4.43;;;;;;;;;;4990698;28;20120;-66
2021/07/22 10:00:47;;;;;;;7.05;4.70;;;;;;;;;;4987061;28;20143;-66
2021/07/22 10:03:14;;;;;;;5.53;3.80;;;;;;;;;;4990945;28;20029;-66
2021/07/22 10:05:43;;;;;;;7.82;4.18;;;;;;;;;;4998666;28;20025;-66
2021/07/22 10:08:09;;;;;;;8.75;4.70;;;;;;;;;;5008935;28;20037;-67
2021/07/22 10:10:37;;;;;;;7.00;3.63;;;;;;;;;;4990388;28;20022;-67
2021/07/22 10:13:04;;;;;;;6.25;3.67;;;;;;;;;;4991599;28;20514;-66
2021/07/22 10:15:35;;;;;;;8.43;4.55;;;;;;;;;;4992003;28;20034;-66
2021/07/22 10:18:02;;;;;;;7.65;4.53;;;;;;;;;;4992892;28;20029;-66
2021/07/22 10:20:29;;;;;;;8.50;4.43;;;;;;;;;;4992656;28;20029;-66
2021/07/22 10:22:55;;;;;;;8.35;4.72;;;;;;;;;;4989873;28;20068;-67
2021/07/22 10:25:21;;;;;;;9.00;4.45;;;;;;;;;;4987062;28;20027;-66
2021/07/22 10:27:47;;;;;;;8.95;5.00;;;;;;;;;;5001258;28;20506;-66
2021/07/22 10:30:13;;;;;;;12.07;5.05;;;;;;;;;;4997929;28;20018;-66
2021/07/22 10:32:40;;;;;;;6.50;4.38;;;;;;;;;;5001056;28;20068;-66
2021/07/22 10:35:07;;;;;;;8.70;4.32;;;;;;;;;;5001165;28;20471;-67
2021/07/22 10:37:34;;;;;;;7.32;4.40;;;;;;;;;;4992528;28;20058;-67
2021/07/22 10:40:09;;;;;;;6.60;4.78;;;;;;;;;;5000766;28;20058;-67
2021/07/22 10:42:39;;;;;;;6.65;4.45;;;;;;;;;;4990761;28;20330;-67
2021/07/22 10:45:20;;;;;;;13.10;4.80;;;;;;;;;;4991261;28;20042;-67
2021/07/22 10:48:02;;;;;;;7.93;4.63;;;;;;;;;;4992008;28;20025;-67
2021/07/22 10:50:42;;;;;;;9.73;5.43;;;;;;;;;;4992588;28;20503;-66
2021/07/22 10:53:08;;;;;;;7.15;4.38;;;;;;;;;;4992206;28;20022;-67
2021/07/22 10:55:43;;;;;;;7.15;4.20;;;;;;;;;;4992315;28;20046;-67
2021/07/22 10:58:24;;;;;;;6.28;4.45;;;;;;;;;;5001897;28;20022;-66
2021/07/22 11:00:51;;;;;;;6.60;4.40;;;;;;;;;;4998214;28;20033;-66
2021/07/22 11:03:35;;;;;;;6.72;5.05;;;;;;;;;;4989857;28;20125;-66
2021/07/22 11:06:01;;;;;;;8.05;4.45;;;;;;;;;;4997380;28;20030;-66
2021/07/22 11:08:29;;;;;;;6.72;3.90;;;;;;;;;;4991294;28;20026;-66
2021/07/22 11:11:02;;;;;;;10.23;4.35;;;;;;;;;;4991612;28;20085;-66
2021/07/22 11:13:41;;;;;;;7.30;4.47;;;;;;;;;;4991420;28;20018;-67
2021/07/22 11:18:55;;;;;;;7.13;4.88;;;;;;;;;;4983938;28;20027;-67
2021/07/22 11:21:23;;;;;;;8.73;5.30;;;;;;;;;;4988035;28;20033;-67
2021/07/22 11:23:55;;;;;;;10.37;4.83;;;;;;;;;;4989197;28;20030;-68
2021/07/22 11:26:22;;;;;;;8.05;4.95;;;;;;;;;;5014193;23;20431;-69
2021/07/22 11:28:49;;;;;;;7.57;4.38;;;;;;;;;;4951990;28;20054;-69
2021/07/22 11:31:15;;;;;;;10.05;5.07;;;;;;;;;;4958097;28;20019;-69
2021/07/22 11:33:42;;;;;;;7.32;4.72;;;;;;;;;;4952491;28;20039;-69
2021/07/22 11:36:12;;;;;;;7.65;4.10;;;;;;;;;;4949391;28;20024;-68
2021/07/22 11:38:41;;;;;;;6.30;4.50;;;;;;;;;;4952482;28;20051;-68
2021/07/22 11:41:11;;;;;;;6.55;4.70;;;;;;;;;;4951294;28;20093;-68
2021/07/22 11:43:38;;;;;;;7.93;4.88;;;;;;;;;;4951191;28;20020;-68
2021/07/22 11:46:09;;;;;;;9.27;4.68;;;;;;;;;;4950589;28;20505;-68
2021/07/22 11:48:35;;;;;;;9.90;5.13;;;;;;;;;;4945011;28;20027;-68
2021/07/22 11:51:02;;;;;;;12.32;4.80;;;;;;;;;;4948959;28;20110;-68
2021/07/22 11:53:28;;;;;;;8.25;4.45;;;;;;;;;;4951428;28;20027;-69
2021/07/22 11:55:55;;;;;;;7.82;4.43;;;;;;;;;;4947908;28;20042;-68
2021/07/22 11:58:21;;;;;;;10.88;5.13;;;;;;;;;;4950578;28;20027;-69
2021/07/22 12:00:47;;;;;;;17.45;6.57;;;;;;;;;;4952169;28;20026;-69
2021/07/22 12:03:13;;;;;;;9.10;4.80;;;;;;;;;;4952736;28;20081;-70
2021/07/22 12:05:39;;;;;;;7.40;4.28;;;;;;;;;;4950363;28;20019;-70
2021/07/22 12:08:14;;;;;;;13.32;5.18;;;;;;;;;;4951896;28;20027;-70
2021/07/22 12:10:41;;;;;;;7.47;4.20;;;;;;;;;;4952365;28;20019;-70
2021/07/22 12:13:10;;;;;;;9.88;4.78;;;;;;;;;;4946078;28;20037;-70
2021/07/22 12:15:36;;;;;;;7.72;4.43;;;;;;;;;;4952410;28;20726;-70
2021/07/22 12:18:03;;;;;;;8.93;4.60;;;;;;;;;;4951018;28;20027;-70
2021/07/22 12:20:29;;;;;;;7.40;4.57;;;;;;;;;;4946060;28;20055;-70
2021/07/22 12:22:55;;;;;;;8.07;3.95;;;;;;;;;;4951403;28;20508;-69
2021/07/22 12:25:21;;;;;;;10.05;4.40;;;;;;;;;;4950731;28;20054;-70
2021/07/22 12:27:52;;;;;;;6.70;4.60;;;;;;;;;;4952974;28;20086;-69
2021/07/22 12:30:19;;;;;;;8.52;4.25;;;;;;;;;;4961142;28;20023;-71
2021/07/22 12:32:51;;;;;;;8.15;4.45;;;;;;;;;;4956715;28;20380;-71
2021/07/22 12:35:36;;;;;;;6.05;4.00;;;;;;;;;;4949257;28;20114;-69
2021/07/22 12:38:04;;;;;;;7.97;3.95;;;;;;;;;;4950557;28;20035;-68
2021/07/22 12:40:36;;;;;;;8.27;5.03;;;;;;;;;;4950998;28;20492;-69
2021/07/22 12:43:02;;;;;;;6.35;4.03;;;;;;;;;;4946856;28;20027;-69
2021/07/22 12:45:28;;;;;;;5.45;4.07;;;;;;;;;;4951993;28;20042;-69
2021/07/22 12:47:54;;;;;;;7.43;4.72;;;;;;;;;;4948600;28;20023;-69
2021/07/22 12:50:30;;;;;;;6.70;4.00;;;;;;;;;;4950562;28;20038;-68
2021/07/22 12:53:03;;;;;;;7.05;3.92;;;;;;;;;;4950137;28;20042;-68
2021/07/22 12:55:39;;;;;;;6.10;4.10;;;;;;;;;;4947431;28;20019;-69
2021/07/22 12:58:05;;;;;;;7.28;4.15;;;;;;;;;;4951308;28;20027;-69
2021/07/22 13:00:40;;;;;;;9.75;4.72;;;;;;;;;;4947975;28;20054;-69
2021/07/22 13:03:06;;;;;;;9.32;4.72;;;;;;;;;;4949975;28;20019;-69
2021/07/22 13:05:32;;;;;;;8.95;4.65;;;;;;;;;;4951971;28;20020;-68
2021/07/22 13:07:58;;;;;;;6.38;4.40;;;;;;;;;;4944355;28;20146;-68
2021/07/22 13:10:24;;;;;;;6.22;3.60;;;;;;;;;;4946053;28;20127;-68
2021/07/22 13:12:50;;;;;;;5.88;3.67;;;;;;;;;;4947508;28;20031;-69
2021/07/22 13:15:17;;;;;;;8.93;4.07;;;;;;;;;;4944731;28;20507;-69
2021/07/22 13:17:43;;;;;;;9.68;3.20;;;;;;;;;;4948005;28;20481;-69
2021/07/22 13:20:10;;;;;;;9.48;4.55;;;;;;;;;;4951228;28;20031;-69
2021/07/22 13:22:36;;;;;;;7.93;4.25;;;;;;;;;;4951955;28;20110;-68
2021/07/22 13:25:03;;;;;;;7.78;4.22;;;;;;;;;;4951380;28;20038;-69
2021/07/22 13:27:29;;;;;;;6.32;4.15;;;;;;;;;;4949513;28;20027;-69
2021/07/22 13:29:55;;;;;;;6.20;3.70;;;;;;;;;;4951081;28;20527;-68
2021/07/22 13:32:21;;;;;;;7.95;3.97;;;;;;;;;;4950073;28;20029;-69
2021/07/22 13:34:47;;;;;;;6.13;3.55;;;;;;;;;;4951698;28;20090;-69
2021/07/22 13:37:13;;;;;;;7.10;3.08;;;;;;;;;;4953046;28;20484;-69
2021/07/22 13:39:39;;;;;;;6.15;2.88;;;;;;;;;;4945242;28;20361;-69
2021/07/22 13:42:06;;;;;;;5.10;3.17;;;;;;;;;;4953060;28;20034;-69
2021/07/22 13:44:32;;;;;;;7.07;3.95;;;;;;;;;;4955279;28;20023;-69
2021/07/22 13:46:58;;;;;;;6.03;3.92;;;;;;;;;;4955296;28;20023;-69
2021/07/22 13:49:26;;;;;;;9.27;3.45;;;;;;;;;;4952185;28;20046;-69
2021/07/22 13:51:52;;;;;;;7.13;3.55;;;;;;;;;;4954736;28;20031;-69
2021/07/22 13:54:18;;;;;;;7.75;3.63;;;;;;;;;;4956741;28;20034;-68
2021/07/22 13:56:44;;;;;;;5.72;3.03;;;;;;;;;;4958515;28;20492;-69
2021/07/22 13:59:09;;;;;;;6.22;4.18;;;;;;;;;;4956697;28;20034;-69
2021/07/22 14:01:36;;;;;;;5.50;3.67;;;;;;;;;;4953096;28;20027;-69
2021/07/22 14:04:02;;;;;;;5.72;2.78;;;;;;;;;;4958725;28;20023;-69
2021/07/22 14:06:28;;;;;;;8.25;3.05;;;;;;;;;;4958850;28;20121;-69
2021/07/22 14:08:54;;;;;;;6.30;3.17;;;;;;;;;;4947900;28;20079;-68
2021/07/22 14:11:20;;;;;;;5.88;3.25;;;;;;;;;;4952493;28;20074;-69
2021/07/22 14:13:46;;;;;;;4.72;2.55;;;;;;;;;;4954412;28;20031;-69
2021/07/22 14:16:12;;;;;;;7.82;3.10;;;;;;;;;;4953554;28;20031;-69
2021/07/22 14:18:38;;;;;;;7.20;3.15;;;;;;;;;;4954671;28;20031;-69
2021/07/22 14:21:04;;;;;;;7.18;2.78;;;;;;;;;;4953943;28;20027;-69
2021/07/22 14:23:30;;;;;;;7.25;3.28;;;;;;;;;;4950298;28;20058;-69
2021/07/22 14:25:56;;;;;;;8.73;3.55;;;;;;;;;;4945431;28;20032;-69
2021/07/22 14:28:22;;;;;;;12.55;4.45;;;;;;;;;;4952238;28;20046;-69
2021/07/22 14:30:48;;;;;;;6.43;3.80;;;;;;;;;;4954448;28;20012;-69
2021/07/22 14:33:14;;;;;;;7.55;4.25;;;;;;;;;;4954054;28;20035;-69
2021/07/22 14:35:40;;;;;;;8.18;4.43;;;;;;;;;;4944729;28;20054;-69